sensor_id;sensor_type;location;lat;lon;timestamp;pressure;altitude;pressure_sealevel;temperature;humidity
72262;BME280;60173;52.112;8.648;2023-03-15T00:01:20;99959.88;;;0.04;82.54
72262;BME280;60173;52.112;8.648;2023-03-15T00:03:47;99966.34;;;0.08;82.47
72262;BME280;60173;52.112;8.648;2023-03-15T00:06:14;99972.25;;;0.10;82.28
72262;BME280;60173;52.112;8.648;2023-03-15T00:08:41;99976.06;;;0.14;82.22
72262;BME280;60173;52.112;8.648;2023-03-15T00:11:07;99974.59;;;0.23;82.02
72262;BME280;60173;52.112;8.648;2023-03-15T00:13:35;99984.75;;;0.21;81.70
72262;BME280;60173;52.112;8.648;2023-03-15T00:16:01;99991.03;;;0.15;81.80
72262;BME280;60173;52.112;8.648;2023-03-15T00:18:28;100001.78;;;0.20;82.45
72262;BME280;60173;52.112;8.648;2023-03-15T00:20:55;99996.31;;;0.27;82.04
72262;BME280;60173;52.112;8.648;2023-03-15T00:23:21;99999.16;;;0.37;81.82
72262;BME280;60173;52.112;8.648;2023-03-15T00:25:49;100005.38;;;0.42;81.48
72262;BME280;60173;52.112;8.648;2023-03-15T00:28:15;100004.91;;;0.45;81.47
72262;BME280;60173;52.112;8.648;2023-03-15T00:30:42;99999.88;;;0.49;81.75
72262;BME280;60173;52.112;8.648;2023-03-15T00:33:10;100000.28;;;0.58;81.52
72262;BME280;60173;52.112;8.648;2023-03-15T00:35:38;99999.81;;;0.61;80.89
72262;BME280;60173;52.112;8.648;2023-03-15T00:38:05;99995.03;;;0.63;80.67
72262;BME280;60173;52.112;8.648;2023-03-15T00:40:31;99997.78;;;0.51;80.76
72262;BME280;60173;52.112;8.648;2023-03-15T00:42:57;99998.19;;;0.60;81.00
72262;BME280;60173;52.112;8.648;2023-03-15T00:45:24;100000.28;;;0.58;80.80
72262;BME280;60173;52.112;8.648;2023-03-15T00:47:52;100005.00;;;0.67;80.54
72262;BME280;60173;52.112;8.648;2023-03-15T00:50:19;100005.22;;;0.66;80.15
72262;BME280;60173;52.112;8.648;2023-03-15T00:52:46;100003.69;;;0.70;79.85
72262;BME280;60173;52.112;8.648;2023-03-15T00:55:15;100003.75;;;0.75;79.97
72262;BME280;60173;52.112;8.648;2023-03-15T00:57:43;99998.91;;;0.72;79.86
72262;BME280;60173;52.112;8.648;2023-03-15T01:00:14;100007.09;;;0.82;79.97
72262;BME280;60173;52.112;8.648;2023-03-15T01:02:41;100007.66;;;0.84;79.58
72262;BME280;60173;52.112;8.648;2023-03-15T01:05:08;100007.31;;;0.98;79.21
72262;BME280;60173;52.112;8.648;2023-03-15T01:07:35;100011.03;;;0.97;78.81
72262;BME280;60173;52.112;8.648;2023-03-15T01:10:03;100009.34;;;0.90;79.02
72262;BME280;60173;52.112;8.648;2023-03-15T01:12:31;100014.22;;;0.94;79.06
72262;BME280;60173;52.112;8.648;2023-03-15T01:14:59;100016.88;;;0.94;78.36
72262;BME280;60173;52.112;8.648;2023-03-15T01:17:25;100025.63;;;1.06;78.01
72262;BME280;60173;52.112;8.648;2023-03-15T01:19:51;100020.75;;;1.03;78.55
72262;BME280;60173;52.112;8.648;2023-03-15T01:22:18;100031.13;;;1.16;77.34
72262;BME280;60173;52.112;8.648;2023-03-15T01:24:45;100031.63;;;1.13;78.17
72262;BME280;60173;52.112;8.648;2023-03-15T01:27:12;100033.53;;;1.18;77.87
72262;BME280;60173;52.112;8.648;2023-03-15T01:29:38;100036.41;;;1.33;77.58
72262;BME280;60173;52.112;8.648;2023-03-15T01:32:05;100031.91;;;1.33;77.25
72262;BME280;60173;52.112;8.648;2023-03-15T01:34:32;100042.59;;;1.33;78.26
72262;BME280;60173;52.112;8.648;2023-03-15T01:36:58;100041.72;;;1.50;77.83
72262;BME280;60173;52.112;8.648;2023-03-15T01:39:25;100045.13;;;1.62;77.60
72262;BME280;60173;52.112;8.648;2023-03-15T01:41:51;100047.91;;;1.72;78.38
72262;BME280;60173;52.112;8.648;2023-03-15T01:44:18;100051.00;;;1.64;79.82
72262;BME280;60173;52.112;8.648;2023-03-15T01:46:45;100054.22;;;1.44;82.08
72262;BME280;60173;52.112;8.648;2023-03-15T01:49:32;100050.84;;;1.32;83.50
72262;BME280;60173;52.112;8.648;2023-03-15T01:52:06;100045.19;;;1.28;84.30
72262;BME280;60173;52.112;8.648;2023-03-15T01:57:10;100052.53;;;1.16;86.19
72262;BME280;60173;52.112;8.648;2023-03-15T01:59:43;100055.31;;;1.26;86.52
72262;BME280;60173;52.112;8.648;2023-03-15T02:02:11;100059.97;;;1.14;87.70
72262;BME280;60173;52.112;8.648;2023-03-15T02:04:43;100057.53;;;1.12;88.33
72262;BME280;60173;52.112;8.648;2023-03-15T02:07:12;100055.53;;;1.03;89.06
72262;BME280;60173;52.112;8.648;2023-03-15T02:09:46;100059.81;;;1.04;89.75
72262;BME280;60173;52.112;8.648;2023-03-15T02:12:16;100060.38;;;1.06;89.92
72262;BME280;60173;52.112;8.648;2023-03-15T02:14:43;100055.75;;;1.01;90.33
72262;BME280;60173;52.112;8.648;2023-03-15T02:17:10;100065.16;;;1.04;90.60
72262;BME280;60173;52.112;8.648;2023-03-15T02:19:54;100053.66;;;1.03;90.89
72262;BME280;60173;52.112;8.648;2023-03-15T02:25:15;100066.31;;;1.08;91.12
72262;BME280;60173;52.112;8.648;2023-03-15T02:27:45;100068.22;;;1.12;91.19
72262;BME280;60173;52.112;8.648;2023-03-15T02:30:13;100059.41;;;1.12;91.48
72262;BME280;60173;52.112;8.648;2023-03-15T02:32:40;100068.63;;;1.21;91.24
72262;BME280;60173;52.112;8.648;2023-03-15T02:35:06;100068.69;;;1.26;91.28
72262;BME280;60173;52.112;8.648;2023-03-15T02:37:33;100068.13;;;1.24;91.12
72262;BME280;60173;52.112;8.648;2023-03-15T02:39:59;100078.78;;;1.19;91.43
72262;BME280;60173;52.112;8.648;2023-03-15T02:42:25;100077.72;;;1.20;92.01
72262;BME280;60173;52.112;8.648;2023-03-15T02:44:53;100076.16;;;1.24;91.97
72262;BME280;60173;52.112;8.648;2023-03-15T02:47:25;100086.31;;;1.22;92.30
72262;BME280;60173;52.112;8.648;2023-03-15T02:49:52;100086.06;;;1.24;92.60
72262;BME280;60173;52.112;8.648;2023-03-15T02:52:20;100092.69;;;1.21;92.82
72262;BME280;60173;52.112;8.648;2023-03-15T02:54:47;100086.22;;;1.17;93.27
72262;BME280;60173;52.112;8.648;2023-03-15T02:57:16;100096.44;;;1.20;93.37
72262;BME280;60173;52.112;8.648;2023-03-15T02:59:43;100114.75;;;1.11;93.18
72262;BME280;60173;52.112;8.648;2023-03-15T03:02:10;100113.63;;;1.07;94.05
72262;BME280;60173;52.112;8.648;2023-03-15T03:04:37;100119.41;;;1.16;94.14
72262;BME280;60173;52.112;8.648;2023-03-15T03:07:04;100122.38;;;1.20;93.90
72262;BME280;60173;52.112;8.648;2023-03-15T03:09:31;100128.94;;;1.12;94.01
72262;BME280;60173;52.112;8.648;2023-03-15T03:11:57;100130.63;;;1.18;93.91
72262;BME280;60173;52.112;8.648;2023-03-15T03:14:24;100141.81;;;1.32;93.29
72262;BME280;60173;52.112;8.648;2023-03-15T03:16:51;100142.16;;;1.19;93.88
72262;BME280;60173;52.112;8.648;2023-03-15T03:19:17;100147.66;;;1.12;94.24
72262;BME280;60173;52.112;8.648;2023-03-15T03:21:43;100150.44;;;1.17;94.36
72262;BME280;60173;52.112;8.648;2023-03-15T03:24:11;100156.34;;;1.19;94.15
72262;BME280;60173;52.112;8.648;2023-03-15T03:26:37;100161.94;;;1.18;94.31
72262;BME280;60173;52.112;8.648;2023-03-15T03:29:03;100171.25;;;1.15;94.40
72262;BME280;60173;52.112;8.648;2023-03-15T03:31:30;100176.38;;;1.17;94.24
72262;BME280;60173;52.112;8.648;2023-03-15T03:33:56;100173.03;;;1.09;94.36
72262;BME280;60173;52.112;8.648;2023-03-15T03:36:23;100174.34;;;1.24;94.34
72262;BME280;60173;52.112;8.648;2023-03-15T03:38:49;100173.31;;;1.25;94.37
72262;BME280;60173;52.112;8.648;2023-03-15T03:41:16;100170.69;;;1.13;94.26
72262;BME280;60173;52.112;8.648;2023-03-15T03:43:43;100177.19;;;1.17;94.53
72262;BME280;60173;52.112;8.648;2023-03-15T03:46:09;100181.88;;;1.10;94.57
72262;BME280;60173;52.112;8.648;2023-03-15T03:48:35;100191.13;;;1.19;94.93
72262;BME280;60173;52.112;8.648;2023-03-15T03:51:02;100189.66;;;1.11;94.59
72262;BME280;60173;52.112;8.648;2023-03-15T03:53:28;100192.09;;;1.13;94.76
72262;BME280;60173;52.112;8.648;2023-03-15T03:55:54;100198.25;;;1.13;94.35
72262;BME280;60173;52.112;8.648;2023-03-15T03:58:21;100200.84;;;1.08;94.61
72262;BME280;60173;52.112;8.648;2023-03-15T04:00:47;100201.97;;;1.12;94.47
72262;BME280;60173;52.112;8.648;2023-03-15T04:03:14;100204.09;;;1.10;94.35
72262;BME280;60173;52.112;8.648;2023-03-15T04:05:40;100206.28;;;1.13;94.41
72262;BME280;60173;52.112;8.648;2023-03-15T04:08:07;100209.84;;;1.19;94.33
72262;BME280;60173;52.112;8.648;2023-03-15T04:10:33;100206.03;;;1.15;93.92
72262;BME280;60173;52.112;8.648;2023-03-15T04:12:59;100219.50;;;1.20;93.57
72262;BME280;60173;52.112;8.648;2023-03-15T04:15:26;100215.03;;;1.09;93.91
72262;BME280;60173;52.112;8.648;2023-03-15T04:17:53;100231.97;;;1.15;94.02
72262;BME280;60173;52.112;8.648;2023-03-15T04:20:19;100231.25;;;1.19;93.16
72262;BME280;60173;52.112;8.648;2023-03-15T04:22:45;100232.13;;;1.08;93.22
72262;BME280;60173;52.112;8.648;2023-03-15T04:25:12;100235.28;;;1.05;93.83
72262;BME280;60173;52.112;8.648;2023-03-15T04:27:38;100239.34;;;1.07;93.91
72262;BME280;60173;52.112;8.648;2023-03-15T04:30:05;100241.03;;;0.97;94.12
72262;BME280;60173;52.112;8.648;2023-03-15T04:32:31;100248.56;;;1.00;94.33
72262;BME280;60173;52.112;8.648;2023-03-15T04:34:58;100251.47;;;0.98;94.49
72262;BME280;60173;52.112;8.648;2023-03-15T04:37:24;100249.13;;;1.02;94.52
72262;BME280;60173;52.112;8.648;2023-03-15T04:39:50;100251.34;;;1.05;94.17
72262;BME280;60173;52.112;8.648;2023-03-15T04:42:17;100254.38;;;0.97;94.15
72262;BME280;60173;52.112;8.648;2023-03-15T04:44:43;100243.97;;;1.12;94.09
72262;BME280;60173;52.112;8.648;2023-03-15T04:47:10;100252.56;;;1.14;93.68
72262;BME280;60173;52.112;8.648;2023-03-15T04:49:36;100257.81;;;1.09;93.70
72262;BME280;60173;52.112;8.648;2023-03-15T04:52:02;100267.94;;;1.07;93.60
72262;BME280;60173;52.112;8.648;2023-03-15T04:54:29;100267.31;;;1.17;93.42
72262;BME280;60173;52.112;8.648;2023-03-15T04:56:55;100266.63;;;1.09;93.35
72262;BME280;60173;52.112;8.648;2023-03-15T04:59:22;100266.50;;;1.16;93.45
72262;BME280;60173;52.112;8.648;2023-03-15T05:01:48;100260.44;;;1.21;93.16
72262;BME280;60173;52.112;8.648;2023-03-15T05:04:14;100258.97;;;1.13;92.81
72262;BME280;60173;52.112;8.648;2023-03-15T05:06:41;100268.28;;;1.10;93.24
72262;BME280;60173;52.112;8.648;2023-03-15T05:09:07;100276.06;;;1.12;92.99
72262;BME280;60173;52.112;8.648;2023-03-15T05:11:33;100278.44;;;1.25;92.92
72262;BME280;60173;52.112;8.648;2023-03-15T05:14:00;100276.91;;;1.29;92.38
72262;BME280;60173;52.112;8.648;2023-03-15T05:16:26;100285.41;;;1.26;92.47
72262;BME280;60173;52.112;8.648;2023-03-15T05:18:52;100295.16;;;1.32;92.37
72262;BME280;60173;52.112;8.648;2023-03-15T05:21:19;100292.84;;;1.24;92.32
72262;BME280;60173;52.112;8.648;2023-03-15T05:23:45;100299.41;;;1.17;92.73
72262;BME280;60173;52.112;8.648;2023-03-15T05:26:11;100301.84;;;1.18;92.97
72262;BME280;60173;52.112;8.648;2023-03-15T05:28:37;100306.31;;;1.29;92.58
72262;BME280;60173;52.112;8.648;2023-03-15T05:31:04;100308.34;;;1.22;92.47
72262;BME280;60173;52.112;8.648;2023-03-15T05:33:30;100309.97;;;1.23;93.26
72262;BME280;60173;52.112;8.648;2023-03-15T05:35:57;100316.47;;;1.27;93.09
72262;BME280;60173;52.112;8.648;2023-03-15T05:38:23;100313.16;;;1.37;92.68
72262;BME280;60173;52.112;8.648;2023-03-15T05:40:49;100319.81;;;1.34;92.47
72262;BME280;60173;52.112;8.648;2023-03-15T05:43:16;100325.06;;;1.29;92.25
72262;BME280;60173;52.112;8.648;2023-03-15T05:45:42;100327.88;;;1.23;92.31
72262;BME280;60173;52.112;8.648;2023-03-15T05:48:08;100332.59;;;1.32;92.62
72262;BME280;60173;52.112;8.648;2023-03-15T05:50:35;100342.75;;;1.30;92.78
72262;BME280;60173;52.112;8.648;2023-03-15T05:53:01;100350.72;;;1.42;92.50
72262;BME280;60173;52.112;8.648;2023-03-15T05:55:27;100353.63;;;1.41;92.19
72262;BME280;60173;52.112;8.648;2023-03-15T05:57:54;100360.44;;;1.31;92.51
72262;BME280;60173;52.112;8.648;2023-03-15T06:00:20;100370.84;;;1.45;92.34
72262;BME280;60173;52.112;8.648;2023-03-15T06:02:47;100365.78;;;1.31;92.44
72262;BME280;60173;52.112;8.648;2023-03-15T06:05:13;100373.56;;;1.33;92.57
72262;BME280;60173;52.112;8.648;2023-03-15T06:07:40;100375.91;;;1.29;92.92
72262;BME280;60173;52.112;8.648;2023-03-15T06:10:06;100381.34;;;1.34;93.19
72262;BME280;60173;52.112;8.648;2023-03-15T06:12:33;100386.91;;;1.45;92.78
72262;BME280;60173;52.112;8.648;2023-03-15T06:14:59;100391.31;;;1.51;92.03
72262;BME280;60173;52.112;8.648;2023-03-15T06:17:25;100391.16;;;1.57;91.33
72262;BME280;60173;52.112;8.648;2023-03-15T06:19:52;100391.16;;;1.57;90.78
72262;BME280;60173;52.112;8.648;2023-03-15T06:22:18;100403.13;;;1.55;90.92
72262;BME280;60173;52.112;8.648;2023-03-15T06:24:45;100411.13;;;1.67;91.13
72262;BME280;60173;52.112;8.648;2023-03-15T06:27:11;100408.59;;;1.60;91.27
72262;BME280;60173;52.112;8.648;2023-03-15T06:29:37;100412.41;;;1.64;91.42
72262;BME280;60173;52.112;8.648;2023-03-15T06:32:04;100418.94;;;1.68;90.73
72262;BME280;60173;52.112;8.648;2023-03-15T06:34:30;100425.56;;;1.66;91.04
72262;BME280;60173;52.112;8.648;2023-03-15T06:36:57;100428.28;;;1.54;91.00
72262;BME280;60173;52.112;8.648;2023-03-15T06:39:23;100432.47;;;1.50;91.21
72262;BME280;60173;52.112;8.648;2023-03-15T06:41:52;100433.59;;;1.37;91.72
72262;BME280;60173;52.112;8.648;2023-03-15T06:44:19;100435.97;;;1.50;92.09
72262;BME280;60173;52.112;8.648;2023-03-15T06:46:45;100443.97;;;1.62;90.83
72262;BME280;60173;52.112;8.648;2023-03-15T06:49:11;100446.19;;;1.65;89.98
72262;BME280;60173;52.112;8.648;2023-03-15T06:51:38;100458.50;;;1.66;90.09
72262;BME280;60173;52.112;8.648;2023-03-15T06:54:04;100450.25;;;1.85;89.79
72262;BME280;60173;52.112;8.648;2023-03-15T06:56:30;100461.50;;;1.98;88.68
72262;BME280;60173;52.112;8.648;2023-03-15T06:58:57;100463.41;;;2.15;88.31
72262;BME280;60173;52.112;8.648;2023-03-15T07:01:23;100465.13;;;2.38;87.20
72262;BME280;60173;52.112;8.648;2023-03-15T07:03:49;100469.66;;;2.54;86.29
72262;BME280;60173;52.112;8.648;2023-03-15T07:06:16;100463.63;;;2.81;84.68
72262;BME280;60173;52.112;8.648;2023-03-15T07:08:42;100472.06;;;2.89;83.16
72262;BME280;60173;52.112;8.648;2023-03-15T07:11:08;100482.81;;;2.89;82.79
72262;BME280;60173;52.112;8.648;2023-03-15T07:13:35;100483.72;;;3.17;82.00
72262;BME280;60173;52.112;8.648;2023-03-15T07:16:01;100484.84;;;3.43;81.06
72262;BME280;60173;52.112;8.648;2023-03-15T07:18:28;100483.19;;;3.59;80.02
72262;BME280;60173;52.112;8.648;2023-03-15T07:20:58;100493.31;;;3.79;78.60
72262;BME280;60173;52.112;8.648;2023-03-15T07:23:25;100494.94;;;3.80;78.80
72262;BME280;60173;52.112;8.648;2023-03-15T07:25:52;100508.59;;;4.00;77.94
72262;BME280;60173;52.112;8.648;2023-03-15T07:28:22;100507.88;;;3.83;77.60
72262;BME280;60173;52.112;8.648;2023-03-15T07:30:56;100505.97;;;3.56;77.73
72262;BME280;60173;52.112;8.648;2023-03-15T07:33:23;100508.66;;;3.56;77.89
72262;BME280;60173;52.112;8.648;2023-03-15T07:35:51;100503.81;;;3.58;77.40
72262;BME280;60173;52.112;8.648;2023-03-15T07:38:19;100502.88;;;3.70;77.49
72262;BME280;60173;52.112;8.648;2023-03-15T07:40:45;100499.25;;;3.81;77.65
72262;BME280;60173;52.112;8.648;2023-03-15T07:43:12;100516.00;;;3.88;77.59
72262;BME280;60173;52.112;8.648;2023-03-15T07:45:38;100511.16;;;3.90;77.30
72262;BME280;60173;52.112;8.648;2023-03-15T07:48:05;100518.19;;;3.69;77.20
72262;BME280;60173;52.112;8.648;2023-03-15T07:50:31;100528.56;;;3.60;77.73
72262;BME280;60173;52.112;8.648;2023-03-15T07:52:57;100531.31;;;4.15;76.82
72262;BME280;60173;52.112;8.648;2023-03-15T07:55:24;100540.34;;;4.58;75.60
72262;BME280;60173;52.112;8.648;2023-03-15T07:57:50;100539.72;;;4.50;74.39
72262;BME280;60173;52.112;8.648;2023-03-15T08:00:18;100545.94;;;4.24;75.09
72262;BME280;60173;52.112;8.648;2023-03-15T08:02:45;100540.81;;;3.73;75.11
72262;BME280;60173;52.112;8.648;2023-03-15T08:05:11;100557.66;;;3.47;77.59
72262;BME280;60173;52.112;8.648;2023-03-15T08:07:38;100554.09;;;3.41;78.78
72262;BME280;60173;52.112;8.648;2023-03-15T08:10:04;100561.22;;;3.52;78.01
72262;BME280;60173;52.112;8.648;2023-03-15T08:12:31;100568.88;;;3.44;78.10
72262;BME280;60173;52.112;8.648;2023-03-15T08:14:58;100564.13;;;3.68;77.23
72262;BME280;60173;52.112;8.648;2023-03-15T08:17:24;100561.75;;;3.71;77.30
72262;BME280;60173;52.112;8.648;2023-03-15T08:19:50;100565.59;;;4.02;76.33
72262;BME280;60173;52.112;8.648;2023-03-15T08:22:16;100558.34;;;4.30;75.32
72262;BME280;60173;52.112;8.648;2023-03-15T08:24:43;100571.50;;;4.53;74.74
72262;BME280;60173;52.112;8.648;2023-03-15T08:27:09;100569.31;;;4.83;72.77
72262;BME280;60173;52.112;8.648;2023-03-15T08:29:36;100572.25;;;5.13;73.28
72262;BME280;60173;52.112;8.648;2023-03-15T08:32:02;100580.88;;;5.63;72.01
72262;BME280;60173;52.112;8.648;2023-03-15T08:34:29;100577.72;;;5.76;70.62
72262;BME280;60173;52.112;8.648;2023-03-15T08:36:55;100599.31;;;5.86;69.97
72262;BME280;60173;52.112;8.648;2023-03-15T08:39:21;100602.41;;;6.05;68.25
72262;BME280;60173;52.112;8.648;2023-03-15T08:41:48;100605.16;;;6.21;67.76
72262;BME280;60173;52.112;8.648;2023-03-15T08:44:14;100608.13;;;6.29;68.06
72262;BME280;60173;52.112;8.648;2023-03-15T08:46:40;100621.94;;;5.80;68.19
72262;BME280;60173;52.112;8.648;2023-03-15T08:49:07;100628.69;;;5.40;69.37
72262;BME280;60173;52.112;8.648;2023-03-15T08:51:33;100636.81;;;5.46;70.27
72262;BME280;60173;52.112;8.648;2023-03-15T08:53:59;100623.16;;;6.05;70.12
72262;BME280;60173;52.112;8.648;2023-03-15T08:56:26;100633.41;;;6.13;69.12
72262;BME280;60173;52.112;8.648;2023-03-15T08:58:52;100640.13;;;5.58;67.62
72262;BME280;60173;52.112;8.648;2023-03-15T09:01:18;100649.59;;;5.23;68.88
72262;BME280;60173;52.112;8.648;2023-03-15T09:03:45;100649.06;;;4.94;69.51
72262;BME280;60173;52.112;8.648;2023-03-15T09:06:11;100646.91;;;4.91;70.06
72262;BME280;60173;52.112;8.648;2023-03-15T09:08:37;100648.78;;;4.90;70.41
72262;BME280;60173;52.112;8.648;2023-03-15T09:11:04;100652.66;;;4.72;70.13
72262;BME280;60173;52.112;8.648;2023-03-15T09:13:30;100663.84;;;4.37;71.60
72262;BME280;60173;52.112;8.648;2023-03-15T09:15:56;100656.47;;;4.49;70.50
72262;BME280;60173;52.112;8.648;2023-03-15T09:18:23;100659.66;;;4.73;70.97
72262;BME280;60173;52.112;8.648;2023-03-15T09:20:50;100663.00;;;4.86;70.34
72262;BME280;60173;52.112;8.648;2023-03-15T09:23:16;100666.09;;;4.99;69.11
72262;BME280;60173;52.112;8.648;2023-03-15T09:25:42;100667.28;;;4.82;69.52
72262;BME280;60173;52.112;8.648;2023-03-15T09:28:10;100677.97;;;4.49;71.38
72262;BME280;60173;52.112;8.648;2023-03-15T09:30:38;100676.16;;;4.33;71.93
72262;BME280;60173;52.112;8.648;2023-03-15T09:33:05;100681.59;;;4.60;71.58
72262;BME280;60173;52.112;8.648;2023-03-15T09:35:31;100686.09;;;5.09;70.77
72262;BME280;60173;52.112;8.648;2023-03-15T09:37:58;100682.97;;;5.22;67.59
72262;BME280;60173;52.112;8.648;2023-03-15T09:40:27;100685.88;;;5.48;67.60
72262;BME280;60173;52.112;8.648;2023-03-15T09:46:01;100691.06;;;6.60;65.06
72262;BME280;60173;52.112;8.648;2023-03-15T09:48:50;100682.22;;;6.95;62.31
72262;BME280;60173;52.112;8.648;2023-03-15T09:54:20;100691.06;;;6.65;63.38
72262;BME280;60173;52.112;8.648;2023-03-15T09:57:00;100682.97;;;6.65;63.70
72262;BME280;60173;52.112;8.648;2023-03-15T09:59:34;100684.31;;;6.67;62.85
72262;BME280;60173;52.112;8.648;2023-03-15T10:02:13;100684.38;;;6.88;60.96
72262;BME280;60173;52.112;8.648;2023-03-15T10:04:42;100684.13;;;7.25;61.55
72262;BME280;60173;52.112;8.648;2023-03-15T10:07:13;100685.72;;;7.57;60.77
72262;BME280;60173;52.112;8.648;2023-03-15T10:09:39;100686.78;;;7.66;61.53
72262;BME280;60173;52.112;8.648;2023-03-15T10:12:11;100688.72;;;7.45;60.57
72262;BME280;60173;52.112;8.648;2023-03-15T10:15:00;100696.25;;;7.02;60.87
72262;BME280;60173;52.112;8.648;2023-03-15T10:20:18;100694.38;;;7.08;61.01
72262;BME280;60173;52.112;8.648;2023-03-15T10:23:20;100684.66;;;7.22;58.79
72262;BME280;60173;52.112;8.648;2023-03-15T10:25:50;100693.31;;;7.29;57.25
72262;BME280;60173;52.112;8.648;2023-03-15T10:28:26;100675.22;;;7.19;57.40
72262;BME280;60173;52.112;8.648;2023-03-15T10:30:56;100677.91;;;7.14;58.53
72262;BME280;60173;52.112;8.648;2023-03-15T10:33:33;100668.72;;;7.46;57.67
72262;BME280;60173;52.112;8.648;2023-03-15T10:36:02;100682.22;;;7.51;58.16
72262;BME280;60173;52.112;8.648;2023-03-15T10:38:37;100687.09;;;7.39;54.25
72262;BME280;60173;52.112;8.648;2023-03-15T10:41:05;100688.72;;;7.30;53.27
72262;BME280;60173;52.112;8.648;2023-03-15T10:43:34;100693.84;;;7.00;54.71
72262;BME280;60173;52.112;8.648;2023-03-15T10:46:06;100687.63;;;7.25;55.24
72262;BME280;60173;52.112;8.648;2023-03-15T10:48:38;100689.28;;;7.52;54.64
72262;BME280;60173;52.112;8.648;2023-03-15T10:51:19;100683.84;;;7.37;54.80
72262;BME280;60173;52.112;8.648;2023-03-15T10:53:57;100682.19;;;7.66;54.78
72262;BME280;60173;52.112;8.648;2023-03-15T10:56:27;100688.09;;;7.84;54.58
72262;BME280;60173;52.112;8.648;2023-03-15T10:58:56;100686.50;;;7.78;52.45
72262;BME280;60173;52.112;8.648;2023-03-15T11:01:37;100696.22;;;7.84;55.28
72262;BME280;60173;52.112;8.648;2023-03-15T11:06:46;100699.06;;;8.33;52.75
72262;BME280;60173;52.112;8.648;2023-03-15T11:09:15;100695.50;;;8.48;49.45
72262;BME280;60173;52.112;8.648;2023-03-15T11:11:50;100703.00;;;8.67;52.25
72262;BME280;60173;52.112;8.648;2023-03-15T11:14:17;100700.94;;;8.48;47.94
72262;BME280;60173;52.112;8.648;2023-03-15T11:16:50;100705.50;;;8.53;49.70
72262;BME280;60173;52.112;8.648;2023-03-15T11:19:21;100709.88;;;8.44;46.93
72262;BME280;60173;52.112;8.648;2023-03-15T11:21:49;100725.59;;;8.26;47.10
72262;BME280;60173;52.112;8.648;2023-03-15T11:26:54;100726.69;;;8.20;47.76
72262;BME280;60173;52.112;8.648;2023-03-15T11:29:29;100724.25;;;8.39;50.25
72262;BME280;60173;52.112;8.648;2023-03-15T11:31:57;100724.75;;;8.36;50.46
72262;BME280;60173;52.112;8.648;2023-03-15T11:37:04;100744.38;;;7.25;48.51
72262;BME280;60173;52.112;8.648;2023-03-15T11:42:34;100744.28;;;6.74;49.54
72262;BME280;60173;52.112;8.648;2023-03-15T11:45:11;100747.00;;;6.85;48.93
72262;BME280;60173;52.112;8.648;2023-03-15T11:47:51;100735.44;;;7.05;47.34
72262;BME280;60173;52.112;8.648;2023-03-15T11:50:20;100737.31;;;7.04;48.83
72262;BME280;60173;52.112;8.648;2023-03-15T11:52:48;100740.06;;;7.76;46.76
72262;BME280;60173;52.112;8.648;2023-03-15T11:55:26;100737.03;;;8.03;46.84
72262;BME280;60173;52.112;8.648;2023-03-15T11:57:54;100743.50;;;8.07;46.38
72262;BME280;60173;52.112;8.648;2023-03-15T12:02:58;100738.38;;;8.00;44.49
72262;BME280;60173;52.112;8.648;2023-03-15T12:05:51;100748.72;;;7.62;46.97
72262;BME280;60173;52.112;8.648;2023-03-15T12:08:46;100735.19;;;7.57;46.87
72262;BME280;60173;52.112;8.648;2023-03-15T12:16:26;100748.16;;;7.65;45.08
72262;BME280;60173;52.112;8.648;2023-03-15T12:18:56;100746.25;;;7.91;44.74
72262;BME280;60173;52.112;8.648;2023-03-15T12:21:37;100750.25;;;8.14;45.07
72262;BME280;60173;52.112;8.648;2023-03-15T12:24:06;100750.25;;;8.14;41.68
72262;BME280;60173;52.112;8.648;2023-03-15T12:26:44;100749.78;;;7.82;42.20
72262;BME280;60173;52.112;8.648;2023-03-15T12:29:23;100747.91;;;7.67;42.14
72262;BME280;60173;52.112;8.648;2023-03-15T12:34:45;100755.97;;;7.00;44.42
72262;BME280;60173;52.112;8.648;2023-03-15T12:37:20;100768.28;;;6.76;46.37
72262;BME280;60173;52.112;8.648;2023-03-15T12:39:59;100780.13;;;6.60;46.45
72262;BME280;60173;52.112;8.648;2023-03-15T12:48:13;100771.00;;;5.49;51.31
72262;BME280;60173;52.112;8.648;2023-03-15T12:56:26;100770.31;;;7.21;48.12
72262;BME280;60173;52.112;8.648;2023-03-15T12:58:59;100756.22;;;6.99;45.03
72262;BME280;60173;52.112;8.648;2023-03-15T13:01:27;100771.56;;;6.88;44.85
72262;BME280;60173;52.112;8.648;2023-03-15T13:03:55;100771.22;;;6.64;45.47
72262;BME280;60173;52.112;8.648;2023-03-15T13:06:44;100762.13;;;6.23;45.63
72262;BME280;60173;52.112;8.648;2023-03-15T13:12:28;100760.22;;;6.18;46.60
72262;BME280;60173;52.112;8.648;2023-03-15T13:15:11;100762.69;;;5.87;46.48
72262;BME280;60173;52.112;8.648;2023-03-15T13:17:55;100772.50;;;5.66;48.21
72262;BME280;60173;52.112;8.648;2023-03-15T13:20:41;100776.84;;;5.73;48.34
72262;BME280;60173;52.112;8.648;2023-03-15T13:23:26;100770.19;;;5.80;48.83
72262;BME280;60173;52.112;8.648;2023-03-15T13:28:37;100773.13;;;6.16;46.00
72262;BME280;60173;52.112;8.648;2023-03-15T13:31:10;100770.09;;;6.50;46.64
72262;BME280;60173;52.112;8.648;2023-03-15T13:33:38;100776.44;;;6.91;45.34
72262;BME280;60173;52.112;8.648;2023-03-15T13:36:11;100770.84;;;7.23;42.63
72262;BME280;60173;52.112;8.648;2023-03-15T13:38:45;100775.69;;;7.11;45.54
72262;BME280;60173;52.112;8.648;2023-03-15T13:41:26;100785.63;;;5.58;60.08
72262;BME280;60173;52.112;8.648;2023-03-15T13:43:59;100787.69;;;5.46;64.28
72262;BME280;60173;52.112;8.648;2023-03-15T13:46:29;100792.44;;;5.65;63.87
72262;BME280;60173;52.112;8.648;2023-03-15T13:48:56;100800.19;;;5.30;64.25
72262;BME280;60173;52.112;8.648;2023-03-15T13:51:29;100807.72;;;5.01;64.91
72262;BME280;60173;52.112;8.648;2023-03-15T13:54:24;100814.72;;;4.58;67.17
72262;BME280;60173;52.112;8.648;2023-03-15T13:57:17;100819.97;;;4.30;68.34
72262;BME280;60173;52.112;8.648;2023-03-15T14:00:04;100825.38;;;4.14;70.00
72262;BME280;60173;52.112;8.648;2023-03-15T14:02:35;100831.34;;;4.16;71.23